KLUF/LUF METAR and TAF weather

Enter ICAO airport designator
Station Type Date Time Source
KLUF METAR 2020/07/12 02:58 UTC NOAA

KLUF 120258Z AUTO 22012G17KT 10SM CLR 41/11 A2977 RMK AO2 SLP063 T04070108 53006 $


Station Type Date Time Source
KLUF Decoded METAR 2020/07/12 02:58 UTC NOAA

Luke Air Force Base / Phoenix, AZ, United States (KLUF) 33-32N 112-23W 332M
Jul 11, 2020 - 10:58 PM EDT / 2020.07.12 0258 UTC
Wind: from the SW (220 degrees) at 14 MPH (12 KT) gusting to 20 MPH (17 KT):0
Visibility: 10 mile(s):0
Sky conditions: clear
Temperature: 105.3 F (40.7 C)
Heat index: 102.6 F (39.2 C):1
Dew Point: 51.4 F (10.8 C)
Relative Humidity: 16%
Pressure (altimeter): 29.77 in. Hg (1008 hPa)
Pressure tendency: 0.02 inches (0.6 hPa) higher than three hours ago
ob: KLUF 120258Z AUTO 22012G17KT 10SM CLR 41/11 A2977 RMK AO2 SLP063 T04070108 53006
cycle: 3

Station Type Date Time Source
KLUF TAF 2020/07/10 04:36 UTC NOAA

TAF TAF KLUF 100400Z 1004/1110 22009KT 9999 FEW070 QNH2976INS
BECMG 1019/1020 27012G20KT 9999 SKC QNH2981INS
BECMG 1103/1104 VRB06KT 9999 SKC QNH2983INS TX44/1023Z TN29/1009Z LAST NO
AMDS AFT 1007 NEXT 1312

Example: see airport list